sensor_id;sensor_type;location;lat;lon;timestamp;pressure;altitude;pressure_sealevel;temperature;humidity
35519;BME280;21627;48.216;16.482;2024-02-26T00:02:25;98601.13;;;5.97;100.00
35519;BME280;21627;48.216;16.482;2024-02-26T00:04:52;98606.25;;;5.94;100.00
35519;BME280;21627;48.216;16.482;2024-02-26T00:07:19;98590.84;;;5.92;100.00
35519;BME280;21627;48.216;16.482;2024-02-26T00:09:46;98586.56;;;5.86;100.00
35519;BME280;21627;48.216;16.482;2024-02-26T00:12:13;98581.41;;;5.82;100.00
35519;BME280;21627;48.216;16.482;2024-02-26T00:14:40;98579.78;;;5.95;100.00
35519;BME280;21627;48.216;16.482;2024-02-26T00:17:08;98586.59;;;6.00;100.00
35519;BME280;21627;48.216;16.482;2024-02-26T00:19:35;98574.59;;;5.85;100.00
35519;BME280;21627;48.216;16.482;2024-02-26T00:22:03;98577.16;;;5.69;100.00
35519;BME280;21627;48.216;16.482;2024-02-26T00:24:30;98584.00;;;5.68;100.00
35519;BME280;21627;48.216;16.482;2024-02-26T00:26:58;98587.38;;;5.56;100.00
35519;BME280;21627;48.216;16.482;2024-02-26T00:29:26;98591.63;;;5.47;100.00
35519;BME280;21627;48.216;16.482;2024-02-26T00:31:53;98589.06;;;5.36;100.00
35519;BME280;21627;48.216;16.482;2024-02-26T00:34:20;98592.47;;;5.30;100.00
35519;BME280;21627;48.216;16.482;2024-02-26T00:36:47;98599.31;;;5.28;100.00
35519;BME280;21627;48.216;16.482;2024-02-26T00:39:14;98596.75;;;5.28;100.00
35519;BME280;21627;48.216;16.482;2024-02-26T00:41:42;98591.63;;;5.25;100.00
35519;BME280;21627;48.216;16.482;2024-02-26T00:44:09;98593.28;;;5.21;100.00
35519;BME280;21627;48.216;16.482;2024-02-26T00:46:36;98578.78;;;5.17;100.00
35519;BME280;21627;48.216;16.482;2024-02-26T00:49:04;98575.34;;;5.08;100.00
35519;BME280;21627;48.216;16.482;2024-02-26T00:51:31;98583.03;;;5.09;100.00
35519;BME280;21627;48.216;16.482;2024-02-26T00:53:58;98577.88;;;5.03;100.00
35519;BME280;21627;48.216;16.482;2024-02-26T00:56:26;98571.03;;;4.96;100.00
35519;BME280;21627;48.216;16.482;2024-02-26T00:58:53;98574.41;;;4.87;100.00
35519;BME280;21627;48.216;16.482;2024-02-26T01:01:20;98570.09;;;4.78;100.00
35519;BME280;21627;48.216;16.482;2024-02-26T01:03:47;98564.09;;;4.73;100.00
35519;BME280;21627;48.216;16.482;2024-02-26T01:06:14;98563.22;;;4.64;100.00
35519;BME280;21627;48.216;16.482;2024-02-26T01:08:42;98558.97;;;4.61;100.00
35519;BME280;21627;48.216;16.482;2024-02-26T01:11:09;98541.00;;;4.55;100.00
35519;BME280;21627;48.216;16.482;2024-02-26T01:13:37;98552.91;;;4.53;100.00
35519;BME280;21627;48.216;16.482;2024-02-26T01:16:04;98557.16;;;4.51;100.00
35519;BME280;21627;48.216;16.482;2024-02-26T01:18:31;98552.00;;;4.43;100.00
35519;BME280;21627;48.216;16.482;2024-02-26T01:20:59;98554.53;;;4.34;100.00
35519;BME280;21627;48.216;16.482;2024-02-26T01:23:26;98545.97;;;4.26;100.00
35519;BME280;21627;48.216;16.482;2024-02-26T01:25:53;98534.81;;;4.18;100.00
35519;BME280;21627;48.216;16.482;2024-02-26T01:28:20;98539.94;;;4.15;100.00
35519;BME280;21627;48.216;16.482;2024-02-26T01:30:47;98531.34;;;4.08;100.00
35519;BME280;21627;48.216;16.482;2024-02-26T01:33:14;98527.91;;;4.00;100.00
35519;BME280;21627;48.216;16.482;2024-02-26T01:35:42;98517.66;;;3.97;100.00
35519;BME280;21627;48.216;16.482;2024-02-26T01:38:09;98520.13;;;3.87;100.00
35519;BME280;21627;48.216;16.482;2024-02-26T01:40:36;98534.59;;;3.85;100.00
35519;BME280;21627;48.216;16.482;2024-02-26T01:43:03;98535.47;;;3.84;100.00
35519;BME280;21627;48.216;16.482;2024-02-26T01:45:30;98526.03;;;3.80;100.00
35519;BME280;21627;48.216;16.482;2024-02-26T01:47:58;98522.66;;;3.78;100.00
35519;BME280;21627;48.216;16.482;2024-02-26T01:50:26;98514.88;;;3.67;100.00
35519;BME280;21627;48.216;16.482;2024-02-26T01:52:54;98512.34;;;3.66;100.00
35519;BME280;21627;48.216;16.482;2024-02-26T01:55:24;98506.28;;;3.56;100.00
35519;BME280;21627;48.216;16.482;2024-02-26T01:57:52;98503.69;;;3.52;100.00
35519;BME280;21627;48.216;16.482;2024-02-26T02:00:21;98508.78;;;3.50;100.00
35519;BME280;21627;48.216;16.482;2024-02-26T02:02:50;98513.88;;;3.50;100.00
35519;BME280;21627;48.216;16.482;2024-02-26T02:05:18;98501.03;;;3.39;100.00
35519;BME280;21627;48.216;16.482;2024-02-26T02:07:47;98507.81;;;3.37;100.00
35519;BME280;21627;48.216;16.482;2024-02-26T02:10:16;98496.66;;;3.26;100.00
35519;BME280;21627;48.216;16.482;2024-02-26T02:12:45;98509.47;;;3.28;100.00
35519;BME280;21627;48.216;16.482;2024-02-26T02:15:12;98495.75;;;3.18;100.00
35519;BME280;21627;48.216;16.482;2024-02-26T02:17:40;98502.53;;;3.16;100.00
35519;BME280;21627;48.216;16.482;2024-02-26T02:20:16;98493.09;;;3.09;100.00
35519;BME280;21627;48.216;16.482;2024-02-26T02:22:47;98501.59;;;3.06;100.00
35519;BME280;21627;48.216;16.482;2024-02-26T02:25:14;98494.75;;;3.03;100.00
35519;BME280;21627;48.216;16.482;2024-02-26T02:27:43;98496.44;;;3.01;100.00
35519;BME280;21627;48.216;16.482;2024-02-26T02:30:12;98500.63;;;2.96;100.00
35519;BME280;21627;48.216;16.482;2024-02-26T02:32:40;98492.09;;;2.94;100.00
35519;BME280;21627;48.216;16.482;2024-02-26T02:35:10;98492.97;;;2.96;100.00
35519;BME280;21627;48.216;16.482;2024-02-26T02:37:38;98468.19;;;2.86;100.00
35519;BME280;21627;48.216;16.482;2024-02-26T02:40:08;98471.59;;;2.85;100.00
35519;BME280;21627;48.216;16.482;2024-02-26T02:42:35;98471.59;;;2.85;100.00
35519;BME280;21627;48.216;16.482;2024-02-26T02:45:02;98483.75;;;3.11;100.00
35519;BME280;21627;48.216;16.482;2024-02-26T02:47:29;98475.19;;;3.02;100.00
35519;BME280;21627;48.216;16.482;2024-02-26T02:49:57;98463.13;;;2.89;100.00
35519;BME280;21627;48.216;16.482;2024-02-26T02:52:24;98469.03;;;2.87;100.00
35519;BME280;21627;48.216;16.482;2024-02-26T02:54:51;98467.41;;;2.90;100.00
35519;BME280;21627;48.216;16.482;2024-02-26T02:57:18;98461.41;;;2.90;100.00
35519;BME280;21627;48.216;16.482;2024-02-26T02:59:46;98454.72;;;2.98;100.00
35519;BME280;21627;48.216;16.482;2024-02-26T03:02:13;98450.72;;;3.29;100.00
35519;BME280;21627;48.216;16.482;2024-02-26T03:04:40;98445.78;;;3.55;100.00
35519;BME280;21627;48.216;16.482;2024-02-26T03:07:08;98438.22;;;3.72;100.00
35519;BME280;21627;48.216;16.482;2024-02-26T03:09:35;98431.50;;;3.89;100.00
35519;BME280;21627;48.216;16.482;2024-02-26T03:12:03;98422.16;;;3.95;100.00
35519;BME280;21627;48.216;16.482;2024-02-26T03:14:30;98438.44;;;4.12;100.00
35519;BME280;21627;48.216;16.482;2024-02-26T03:16:57;98442.75;;;4.22;100.00
35519;BME280;21627;48.216;16.482;2024-02-26T03:19:24;98432.56;;;4.34;100.00
35519;BME280;21627;48.216;16.482;2024-02-26T03:21:53;98426.63;;;4.43;100.00
35519;BME280;21627;48.216;16.482;2024-02-26T03:24:20;98432.66;;;4.62;100.00
35519;BME280;21627;48.216;16.482;2024-02-26T03:26:47;98429.28;;;4.85;100.00
35519;BME280;21627;48.216;16.482;2024-02-26T03:29:14;98427.59;;;5.01;100.00
35519;BME280;21627;48.216;16.482;2024-02-26T03:31:41;98431.00;;;5.06;100.00
35519;BME280;21627;48.216;16.482;2024-02-26T03:34:08;98419.94;;;5.14;100.00
35519;BME280;21627;48.216;16.482;2024-02-26T03:36:36;98424.19;;;5.34;100.00
35519;BME280;21627;48.216;16.482;2024-02-26T03:39:03;98423.34;;;5.39;100.00
35519;BME280;21627;48.216;16.482;2024-02-26T03:41:34;98417.31;;;5.47;100.00
35519;BME280;21627;48.216;16.482;2024-02-26T03:44:02;98423.34;;;5.47;100.00
35519;BME280;21627;48.216;16.482;2024-02-26T03:46:29;98412.22;;;5.45;100.00
35519;BME280;21627;48.216;16.482;2024-02-26T03:48:56;98412.22;;;5.39;100.00
35519;BME280;21627;48.216;16.482;2024-02-26T03:51:24;98423.31;;;5.49;100.00
35519;BME280;21627;48.216;16.482;2024-02-26T03:53:51;98419.03;;;5.49;100.00
35519;BME280;21627;48.216;16.482;2024-02-26T03:56:18;98419.91;;;5.40;100.00
35519;BME280;21627;48.216;16.482;2024-02-26T03:58:46;98420.75;;;5.50;100.00
35519;BME280;21627;48.216;16.482;2024-02-26T04:01:13;98433.59;;;5.39;100.00
35519;BME280;21627;48.216;16.482;2024-02-26T04:03:40;98420.75;;;5.36;100.00
35519;BME280;21627;48.216;16.482;2024-02-26T04:06:11;98426.75;;;5.38;100.00
35519;BME280;21627;48.216;16.482;2024-02-26T04:08:42;98413.94;;;5.37;100.00
35519;BME280;21627;48.216;16.482;2024-02-26T04:11:09;98419.91;;;5.36;100.00
35519;BME280;21627;48.216;16.482;2024-02-26T04:13:37;98428.44;;;5.44;100.00
35519;BME280;21627;48.216;16.482;2024-02-26T04:16:07;98417.34;;;5.36;100.00
35519;BME280;21627;48.216;16.482;2024-02-26T04:18:34;98408.81;;;5.23;100.00
35519;BME280;21627;48.216;16.482;2024-02-26T04:21:01;98417.38;;;5.30;100.00
35519;BME280;21627;48.216;16.482;2024-02-26T04:23:30;98405.41;;;5.27;100.00
35519;BME280;21627;48.216;16.482;2024-02-26T04:25:58;98412.25;;;5.27;100.00
35519;BME280;21627;48.216;16.482;2024-02-26T04:28:25;98425.03;;;5.24;100.00
35519;BME280;21627;48.216;16.482;2024-02-26T04:30:53;98416.50;;;5.29;100.00
35519;BME280;21627;48.216;16.482;2024-02-26T04:33:20;98412.22;;;5.28;100.00
35519;BME280;21627;48.216;16.482;2024-02-26T04:35:47;98422.47;;;5.28;100.00
35519;BME280;21627;48.216;16.482;2024-02-26T04:38:15;98409.69;;;5.22;100.00
35519;BME280;21627;48.216;16.482;2024-02-26T04:40:42;98414.78;;;5.16;100.00
35519;BME280;21627;48.216;16.482;2024-02-26T04:43:09;98413.94;;;5.18;100.00
35519;BME280;21627;48.216;16.482;2024-02-26T04:45:36;98418.19;;;5.09;100.00
35519;BME280;21627;48.216;16.482;2024-02-26T04:48:04;98431.03;;;5.07;100.00
35519;BME280;21627;48.216;16.482;2024-02-26T04:50:31;98431.00;;;5.06;100.00
35519;BME280;21627;48.216;16.482;2024-02-26T04:52:58;98422.47;;;4.97;100.00
35519;BME280;21627;48.216;16.482;2024-02-26T04:55:25;98426.75;;;5.02;100.00
35519;BME280;21627;48.216;16.482;2024-02-26T04:57:53;98413.94;;;4.97;100.00
35519;BME280;21627;48.216;16.482;2024-02-26T05:00:20;98410.53;;;5.03;100.00
35519;BME280;21627;48.216;16.482;2024-02-26T05:02:47;98419.91;;;4.96;100.00
35519;BME280;21627;48.216;16.482;2024-02-26T05:05:14;98420.75;;;4.92;100.00
35519;BME280;21627;48.216;16.482;2024-02-26T05:07:42;98436.13;;;4.99;100.00
35519;BME280;21627;48.216;16.482;2024-02-26T05:10:10;98432.72;;;4.94;100.00
35519;BME280;21627;48.216;16.482;2024-02-26T05:12:37;98425.03;;;4.93;100.00
35519;BME280;21627;48.216;16.482;2024-02-26T05:15:05;98437.81;;;4.96;100.00
35519;BME280;21627;48.216;16.482;2024-02-26T05:17:33;98434.44;;;4.94;100.00
35519;BME280;21627;48.216;16.482;2024-02-26T05:20:00;98430.16;;;4.90;100.00
35519;BME280;21627;48.216;16.482;2024-02-26T05:22:28;98431.84;;;4.82;100.00
35519;BME280;21627;48.216;16.482;2024-02-26T05:24:55;98435.25;;;4.82;100.00
35519;BME280;21627;48.216;16.482;2024-02-26T05:27:23;98448.06;;;4.79;100.00
35519;BME280;21627;48.216;16.482;2024-02-26T05:29:51;98440.38;;;4.79;100.00
35519;BME280;21627;48.216;16.482;2024-02-26T05:32:21;98448.06;;;4.79;100.00
35519;BME280;21627;48.216;16.482;2024-02-26T05:34:48;98448.88;;;4.70;100.00
35519;BME280;21627;48.216;16.482;2024-02-26T05:37:15;98448.03;;;4.68;100.00
35519;BME280;21627;48.216;16.482;2024-02-26T05:39:42;98454.84;;;4.63;100.00
35519;BME280;21627;48.216;16.482;2024-02-26T05:42:09;98445.44;;;4.61;100.00
35519;BME280;21627;48.216;16.482;2024-02-26T05:44:36;98456.56;;;4.70;100.00
35519;BME280;21627;48.216;16.482;2024-02-26T05:47:04;98461.69;;;4.64;100.00
35519;BME280;21627;48.216;16.482;2024-02-26T05:49:33;98456.53;;;4.55;100.00
35519;BME280;21627;48.216;16.482;2024-02-26T05:52:00;98456.50;;;4.53;100.00
35519;BME280;21627;48.216;16.482;2024-02-26T05:54:28;98463.38;;;4.59;100.00
35519;BME280;21627;48.216;16.482;2024-02-26T05:56:55;98467.63;;;4.63;100.00
35519;BME280;21627;48.216;16.482;2024-02-26T05:59:22;98471.06;;;4.67;100.00
35519;BME280;21627;48.216;16.482;2024-02-26T06:01:49;98478.75;;;4.67;100.00
35519;BME280;21627;48.216;16.482;2024-02-26T06:04:17;98478.75;;;4.64;100.00
35519;BME280;21627;48.216;16.482;2024-02-26T06:06:45;98466.78;;;4.60;100.00
35519;BME280;21627;48.216;16.482;2024-02-26T06:09:15;98484.75;;;4.75;100.00
35519;BME280;21627;48.216;16.482;2024-02-26T06:11:42;98483.88;;;4.67;100.00
35519;BME280;21627;48.216;16.482;2024-02-26T06:14:09;98489.81;;;4.66;100.00
35519;BME280;21627;48.216;16.482;2024-02-26T06:16:38;98487.28;;;4.61;100.00
35519;BME280;21627;48.216;16.482;2024-02-26T06:19:05;98500.09;;;4.64;100.00
35519;BME280;21627;48.216;16.482;2024-02-26T06:21:35;98481.28;;;4.61;100.00
35519;BME280;21627;48.216;16.482;2024-02-26T06:24:02;98487.28;;;4.70;100.00
35519;BME280;21627;48.216;16.482;2024-02-26T06:26:29;98485.63;;;4.86;100.00
35519;BME280;21627;48.216;16.482;2024-02-26T06:28:56;98484.81;;;4.99;100.00
35519;BME280;21627;48.216;16.482;2024-02-26T06:31:23;98485.66;;;5.08;100.00
35519;BME280;21627;48.216;16.482;2024-02-26T06:33:50;98484.81;;;5.04;100.00
35519;BME280;21627;48.216;16.482;2024-02-26T06:36:18;98494.22;;;5.05;100.00
35519;BME280;21627;48.216;16.482;2024-02-26T06:38:45;98487.38;;;5.10;100.00
35519;BME280;21627;48.216;16.482;2024-02-26T06:41:12;98490.81;;;5.09;100.00
35519;BME280;21627;48.216;16.482;2024-02-26T06:43:39;98500.19;;;5.18;100.00
35519;BME280;21627;48.216;16.482;2024-02-26T06:46:07;98494.22;;;5.25;100.00
35519;BME280;21627;48.216;16.482;2024-02-26T06:48:34;98492.53;;;5.24;100.00
35519;BME280;21627;48.216;16.482;2024-02-26T06:51:04;98501.94;;;5.33;100.00
35519;BME280;21627;48.216;16.482;2024-02-26T06:53:31;98499.38;;;5.37;100.00
35519;BME280;21627;48.216;16.482;2024-02-26T06:55:58;98493.41;;;5.45;100.00
35519;BME280;21627;48.216;16.482;2024-02-26T06:58:25;98501.06;;;5.54;100.00
35519;BME280;21627;48.216;16.482;2024-02-26T07:00:52;98494.22;;;5.71;100.00
35519;BME280;21627;48.216;16.482;2024-02-26T07:03:20;98492.53;;;5.75;100.00
35519;BME280;21627;48.216;16.482;2024-02-26T07:05:47;98490.81;;;5.80;100.00
35519;BME280;21627;48.216;16.482;2024-02-26T07:08:14;98483.94;;;5.91;100.00
35519;BME280;21627;48.216;16.482;2024-02-26T07:10:42;98486.53;;;6.00;100.00
35519;BME280;21627;48.216;16.482;2024-02-26T07:13:10;98488.19;;;6.12;100.00
35519;BME280;21627;48.216;16.482;2024-02-26T07:15:38;98489.91;;;6.12;100.00
35519;BME280;21627;48.216;16.482;2024-02-26T07:18:05;98483.06;;;6.12;100.00
35519;BME280;21627;48.216;16.482;2024-02-26T07:20:33;98483.03;;;6.24;100.00
35519;BME280;21627;48.216;16.482;2024-02-26T07:23:00;98486.41;;;6.39;100.00
35519;BME280;21627;48.216;16.482;2024-02-26T07:25:27;98496.69;;;6.43;100.00
35519;BME280;21627;48.216;16.482;2024-02-26T07:27:54;98502.59;;;6.65;100.00
35519;BME280;21627;48.216;16.482;2024-02-26T07:30:22;98508.50;;;6.75;100.00
35519;BME280;21627;48.216;16.482;2024-02-26T07:32:49;98511.09;;;6.78;100.00
35519;BME280;21627;48.216;16.482;2024-02-26T07:35:17;98519.59;;;6.85;100.00
35519;BME280;21627;48.216;16.482;2024-02-26T07:37:48;98515.25;;;6.99;100.00
35519;BME280;21627;48.216;16.482;2024-02-26T07:40:17;98513.59;;;6.90;100.00
35519;BME280;21627;48.216;16.482;2024-02-26T07:42:44;98511.84;;;6.97;100.00
35519;BME280;21627;48.216;16.482;2024-02-26T07:45:11;98511.78;;;7.05;100.00
35519;BME280;21627;48.216;16.482;2024-02-26T07:47:39;98508.31;;;7.10;100.00
35519;BME280;21627;48.216;16.482;2024-02-26T07:50:08;98511.72;;;7.17;100.00
35519;BME280;21627;48.216;16.482;2024-02-26T07:52:36;98510.84;;;7.20;100.00
35519;BME280;21627;48.216;16.482;2024-02-26T07:55:04;98499.66;;;7.27;100.00
35519;BME280;21627;48.216;16.482;2024-02-26T07:57:34;98510.72;;;7.38;100.00
35519;BME280;21627;48.216;16.482;2024-02-26T08:00:02;98516.69;;;7.42;100.00
35519;BME280;21627;48.216;16.482;2024-02-26T08:02:30;98514.91;;;7.48;100.00
35519;BME280;21627;48.216;16.482;2024-02-26T08:04:57;98519.22;;;7.48;100.00
35519;BME280;21627;48.216;16.482;2024-02-26T08:07:24;98523.47;;;7.53;100.00
35519;BME280;21627;48.216;16.482;2024-02-26T08:09:52;98531.09;;;7.63;100.00
35519;BME280;21627;48.216;16.482;2024-02-26T08:12:19;98530.22;;;7.65;100.00
35519;BME280;21627;48.216;16.482;2024-02-26T08:14:46;98528.38;;;7.81;100.00
35519;BME280;21627;48.216;16.482;2024-02-26T08:17:13;98530.03;;;7.91;100.00
35519;BME280;21627;48.216;16.482;2024-02-26T08:19:40;98532.59;;;7.91;100.00
35519;BME280;21627;48.216;16.482;2024-02-26T08:22:08;98531.59;;;8.05;100.00
35519;BME280;21627;48.216;16.482;2024-02-26T08:24:36;98528.03;;;8.19;100.00
35519;BME280;21627;48.216;16.482;2024-02-26T08:27:04;98528.00;;;8.21;100.00
35519;BME280;21627;48.216;16.482;2024-02-26T08:29:31;98530.44;;;8.33;100.00
35519;BME280;21627;48.216;16.482;2024-02-26T08:31:58;98507.22;;;8.36;100.00
35519;BME280;21627;48.216;16.482;2024-02-26T08:34:26;98510.59;;;8.46;100.00
35519;BME280;21627;48.216;16.482;2024-02-26T08:36:53;98504.53;;;8.52;100.00
35519;BME280;21627;48.216;16.482;2024-02-26T08:39:20;98518.09;;;8.66;100.00
35519;BME280;21627;48.216;16.482;2024-02-26T08:41:47;98523.97;;;8.77;100.00
35519;BME280;21627;48.216;16.482;2024-02-26T08:44:15;98525.63;;;8.83;100.00
35519;BME280;21627;48.216;16.482;2024-02-26T08:46:43;98529.78;;;8.95;100.00
35519;BME280;21627;48.216;16.482;2024-02-26T08:49:10;98516.00;;;8.97;100.00
35519;BME280;21627;48.216;16.482;2024-02-26T08:51:44;98518.41;;;9.06;100.00
35519;BME280;21627;48.216;16.482;2024-02-26T08:54:12;98516.41;;;9.27;100.00
35519;BME280;21627;48.216;16.482;2024-02-26T08:56:39;98512.06;;;9.30;100.00
35519;BME280;21627;48.216;16.482;2024-02-26T08:59:06;98516.28;;;9.38;100.00
35519;BME280;21627;48.216;16.482;2024-02-26T09:01:34;98512.63;;;9.49;100.00
35519;BME280;21627;48.216;16.482;2024-02-26T09:04:01;98507.22;;;9.65;100.00
35519;BME280;21627;48.216;16.482;2024-02-26T09:06:28;98515.59;;;9.81;100.00
35519;BME280;21627;48.216;16.482;2024-02-26T09:08:56;98516.31;;;9.87;100.00
35519;BME280;21627;48.216;16.482;2024-02-26T09:11:27;98503.31;;;9.93;100.00
35519;BME280;21627;48.216;16.482;2024-02-26T09:13:55;98513.38;;;10.09;100.00
35519;BME280;21627;48.216;16.482;2024-02-26T09:16:22;98510.50;;;10.23;100.00
35519;BME280;21627;48.216;16.482;2024-02-26T09:18:49;98523.41;;;10.26;100.00
35519;BME280;21627;48.216;16.482;2024-02-26T09:21:19;98515.66;;;10.26;100.00
35519;BME280;21627;48.216;16.482;2024-02-26T09:23:51;98517.16;;;10.39;100.00
35519;BME280;21627;48.216;16.482;2024-02-26T09:26:19;98518.66;;;10.51;100.00
35519;BME280;21627;48.216;16.482;2024-02-26T09:28:46;98508.72;;;10.73;100.00
35519;BME280;21627;48.216;16.482;2024-02-26T09:31:15;98512.00;;;10.81;100.00
35519;BME280;21627;48.216;16.482;2024-02-26T09:33:43;98515.19;;;10.94;100.00
35519;BME280;21627;48.216;16.482;2024-02-26T09:36:11;98518.13;;;11.16;100.00
35519;BME280;21627;48.216;16.482;2024-02-26T09:38:38;98523.38;;;11.13;100.00
35519;BME280;21627;48.216;16.482;2024-02-26T09:41:22;98523.09;;;11.26;100.00
35519;BME280;21627;48.216;16.482;2024-02-26T09:43:51;98524.78;;;11.27;100.00
35519;BME280;21627;48.216;16.482;2024-02-26T09:46:24;98524.69;;;11.31;100.00
35519;BME280;21627;48.216;16.482;2024-02-26T09:48:52;98515.84;;;11.41;100.00
35519;BME280;21627;48.216;16.482;2024-02-26T09:51:19;98529.56;;;11.44;100.00
35519;BME280;21627;48.216;16.482;2024-02-26T09:53:52;98531.28;;;11.44;99.05
35519;BME280;21627;48.216;16.482;2024-02-26T09:56:20;98523.38;;;11.52;100.00
35519;BME280;21627;48.216;16.482;2024-02-26T09:58:48;98525.78;;;11.59;100.00
35519;BME280;21627;48.216;16.482;2024-02-26T10:01:21;98524.84;;;11.62;100.00
35519;BME280;21627;48.216;16.482;2024-02-26T10:03:56;98522.03;;;11.71;100.00
35519;BME280;21627;48.216;16.482;2024-02-26T10:06:26;98533.91;;;11.80;99.07
35519;BME280;21627;48.216;16.482;2024-02-26T10:08:55;98530.88;;;11.98;98.96
35519;BME280;21627;48.216;16.482;2024-02-26T10:11:26;98534.41;;;11.96;94.93
35519;BME280;21627;48.216;16.482;2024-02-26T10:13:54;98526.16;;;11.78;96.27
35519;BME280;21627;48.216;16.482;2024-02-26T10:16:21;98530.31;;;11.85;98.41
35519;BME280;21627;48.216;16.482;2024-02-26T10:18:52;98529.97;;;11.99;92.37
35519;BME280;21627;48.216;16.482;2024-02-26T10:21:26;98529.66;;;12.13;89.85
35519;BME280;21627;48.216;16.482;2024-02-26T10:23:53;98534.81;;;12.13;92.05
35519;BME280;21627;48.216;16.482;2024-02-26T10:26:21;98530.25;;;12.23;90.00
35519;BME280;21627;48.216;16.482;2024-02-26T10:28:49;98526.94;;;12.18;87.76
35519;BME280;21627;48.216;16.482;2024-02-26T10:31:21;98526.56;;;12.31;86.31
35519;BME280;21627;48.216;16.482;2024-02-26T10:33:49;98504.22;;;12.27;91.59
35519;BME280;21627;48.216;16.482;2024-02-26T10:36:17;98532.97;;;12.49;89.34
35519;BME280;21627;48.216;16.482;2024-02-26T10:38:44;98522.69;;;12.46;82.94
35519;BME280;21627;48.216;16.482;2024-02-26T10:41:14;98514.28;;;12.38;83.91
35519;BME280;21627;48.216;16.482;2024-02-26T10:43:43;98508.50;;;12.60;85.25
35519;BME280;21627;48.216;16.482;2024-02-26T10:46:11;98513.31;;;12.73;86.19
35519;BME280;21627;48.216;16.482;2024-02-26T10:48:38;98518.28;;;12.81;85.92
35519;BME280;21627;48.216;16.482;2024-02-26T10:51:08;98527.13;;;12.74;82.74
35519;BME280;21627;48.216;16.482;2024-02-26T10:53:38;98530.88;;;12.64;85.32
35519;BME280;21627;48.216;16.482;2024-02-26T10:56:08;98522.84;;;12.73;82.02
35519;BME280;21627;48.216;16.482;2024-02-26T10:58:37;98519.59;;;12.65;82.45
35519;BME280;21627;48.216;16.482;2024-02-26T11:01:05;98529.84;;;12.69;84.96
35519;BME280;21627;48.216;16.482;2024-02-26T11:03:33;98538.22;;;12.79;85.11
35519;BME280;21627;48.216;16.482;2024-02-26T11:06:04;98535.25;;;12.93;82.32
35519;BME280;21627;48.216;16.482;2024-02-26T11:08:32;98533.88;;;13.09;81.02
35519;BME280;21627;48.216;16.482;2024-02-26T11:11:00;98531.63;;;13.28;81.09
35519;BME280;21627;48.216;16.482;2024-02-26T11:13:28;98534.19;;;13.56;79.52
35519;BME280;21627;48.216;16.482;2024-02-26T11:16:01;98529.69;;;13.88;73.56
35519;BME280;21627;48.216;16.482;2024-02-26T11:18:30;98512.06;;;13.98;71.36
35519;BME280;21627;48.216;16.482;2024-02-26T11:20:59;98511.31;;;13.94;68.96
35519;BME280;21627;48.216;16.482;2024-02-26T11:23:26;98513.97;;;14.18;70.91
35519;BME280;21627;48.216;16.482;2024-02-26T11:25:57;98507.41;;;14.33;65.87
35519;BME280;21627;48.216;16.482;2024-02-26T11:28:27;98505.16;;;14.47;66.15
35519;BME280;21627;48.216;16.482;2024-02-26T11:30:55;98505.16;;;14.47;66.41
35519;BME280;21627;48.216;16.482;2024-02-26T11:33:26;98514.69;;;14.71;64.86
35519;BME280;21627;48.216;16.482;2024-02-26T11:35:55;98507.09;;;15.12;62.17
35519;BME280;21627;48.216;16.482;2024-02-26T11:38:25;98502.50;;;15.41;63.60
35519;BME280;21627;48.216;16.482;2024-02-26T11:40:53;98509.78;;;15.55;61.84
35519;BME280;21627;48.216;16.482;2024-02-26T11:43:50;98503.94;;;15.48;57.97
35519;BME280;21627;48.216;16.482;2024-02-26T11:46:33;98510.38;;;15.18;55.67
35519;BME280;21627;48.216;16.482;2024-02-26T11:51:52;98496.44;;;15.19;55.10
35519;BME280;21627;48.216;16.482;2024-02-26T11:54:44;98491.69;;;15.06;54.60
35519;BME280;21627;48.216;16.482;2024-02-26T11:57:48;98489.09;;;15.06;57.41
35519;BME280;21627;48.216;16.482;2024-02-26T12:00:16;98496.47;;;14.95;54.84
35519;BME280;21627;48.216;16.482;2024-02-26T12:02:55;98492.41;;;14.88;55.18
35519;BME280;21627;48.216;16.482;2024-02-26T12:05:32;98477.50;;;14.69;54.98
35519;BME280;21627;48.216;16.482;2024-02-26T12:08:06;98483.47;;;14.71;55.30
35519;BME280;21627;48.216;16.482;2024-02-26T12:10:38;98479.78;;;14.54;55.54
35519;BME280;21627;48.216;16.482;2024-02-26T12:13:15;98481.94;;;14.66;56.94
35519;BME280;21627;48.216;16.482;2024-02-26T12:15:58;98488.56;;;14.75;56.79
35519;BME280;21627;48.216;16.482;2024-02-26T12:18:27;98461.81;;;14.71;55.83
35519;BME280;21627;48.216;16.482;2024-02-26T12:21:04;98482.41;;;14.77;55.29
35519;BME280;21627;48.216;16.482;2024-02-26T12:23:32;98471.16;;;14.77;53.23
35519;BME280;21627;48.216;16.482;2024-02-26T12:26:00;98480.84;;;14.71;52.19
35519;BME280;21627;48.216;16.482;2024-02-26T12:28:30;98476.81;;;14.64;52.70
35519;BME280;21627;48.216;16.482;2024-02-26T12:30:58;98466.34;;;14.66;51.35
35519;BME280;21627;48.216;16.482;2024-02-26T12:33:27;98468.63;;;14.50;52.93
35519;BME280;21627;48.216;16.482;2024-02-26T12:35:55;98465.03;;;14.78;51.49
35519;BME280;21627;48.216;16.482;2024-02-26T12:38:23;98479.19;;;14.70;50.86
35519;BME280;21627;48.216;16.482;2024-02-26T12:40:51;98470.06;;;14.59;52.33
35519;BME280;21627;48.216;16.482;2024-02-26T12:43:18;98462.22;;;14.60;51.89
35519;BME280;21627;48.216;16.482;2024-02-26T12:45:45;98461.38;;;14.60;52.93
35519;BME280;21627;48.216;16.482;2024-02-26T12:48:15;98471.81;;;14.58;53.14
35519;BME280;21627;48.216;16.482;2024-02-26T12:50:46;98471.28;;;14.48;51.16
35519;BME280;21627;48.216;16.482;2024-02-26T12:53:17;98466.41;;;14.64;53.00
35519;BME280;21627;48.216;16.482;2024-02-26T12:55:44;98466.25;;;14.91;51.29
35519;BME280;21627;48.216;16.482;2024-02-26T12:58:12;98472.56;;;15.29;49.35
35519;BME280;21627;48.216;16.482;2024-02-26T13:00:40;98454.78;;;15.83;49.46